createdAt,value
2023-02-01T00:01:22.886Z,-0.22
2023-02-01T00:03:51.366Z,-0.27
2023-02-01T00:06:19.676Z,-0.33
2023-02-01T00:08:47.673Z,-0.37
2023-02-01T00:11:15.685Z,-0.43
2023-02-01T00:13:43.638Z,-0.47
2023-02-01T00:16:17.654Z,-0.51
2023-02-01T00:18:47.571Z,-0.56
2023-02-01T00:21:18.603Z,-0.57
2023-02-01T00:23:47.290Z,-0.60
2023-02-01T00:26:18.590Z,-0.64
2023-02-01T00:28:47.568Z,-0.69
2023-02-01T00:31:16.205Z,-0.75
2023-02-01T00:33:47.668Z,-0.81
2023-02-01T00:36:17.831Z,-0.88
2023-02-01T00:38:46.003Z,-0.93
2023-02-01T00:41:17.013Z,-1.01
2023-02-01T00:43:46.111Z,-1.10
2023-02-01T00:46:15.958Z,-1.17
2023-02-01T00:48:44.430Z,-1.25
2023-02-01T00:51:16.407Z,-1.33
2023-02-01T00:53:44.713Z,-1.40
2023-02-01T00:56:13.265Z,-1.54
2023-02-01T00:58:45.308Z,-1.60
2023-02-01T01:01:22.898Z,-1.57
2023-02-01T01:03:56.386Z,-1.60
2023-02-01T01:06:30.517Z,-1.61
2023-02-01T01:09:00.421Z,-1.62
2023-02-01T01:11:31.529Z,-1.62
2023-02-01T01:14:00.689Z,-1.62
2023-02-01T01:16:30.866Z,-1.63
2023-02-01T01:18:59.422Z,-1.65
2023-02-01T01:21:27.872Z,-1.65
2023-02-01T01:23:56.144Z,-1.64
2023-02-01T01:26:28.724Z,-1.63
2023-02-01T01:28:58.369Z,-1.61
2023-02-01T01:31:27.270Z,-1.59
2023-02-01T01:33:58.272Z,-1.57
2023-02-01T01:36:27.868Z,-1.56
2023-02-01T01:38:56.464Z,-1.54
2023-02-01T01:41:29.484Z,-1.55
2023-02-01T01:44:01.998Z,-1.58
2023-02-01T01:46:34.146Z,-1.61
2023-02-01T01:49:05.114Z,-1.64
2023-02-01T01:51:40.314Z,-1.68
2023-02-01T01:54:34.254Z,-1.72
2023-02-01T01:57:10.867Z,-1.76
2023-02-01T01:59:43.098Z,-1.80
2023-02-01T02:02:11.559Z,-1.85
2023-02-01T02:04:40.395Z,-1.88
2023-02-01T02:07:18.776Z,-1.90
2023-02-01T02:09:59.527Z,-1.91
2023-02-01T02:12:29.620Z,-1.88
2023-02-01T02:14:57.970Z,-1.85
2023-02-01T02:18:02.383Z,-1.81
2023-02-01T02:21:04.581Z,-1.74
2023-02-01T02:24:08.080Z,-1.64
2023-02-01T02:26:41.750Z,-1.53
2023-02-01T02:29:43.605Z,-1.44
2023-02-01T02:32:59.518Z,-1.33
2023-02-01T02:36:07.947Z,-1.22
2023-02-01T02:38:52.592Z,-1.12
2023-02-01T02:42:17.188Z,-1.05
2023-02-01T02:45:21.352Z,-0.99
2023-02-01T02:48:14.170Z,-0.97
2023-02-01T02:51:11.361Z,-0.96
2023-02-01T02:54:29.356Z,-0.98
2023-02-01T02:57:19.533Z,-1.01
2023-02-01T03:00:08.095Z,-1.05
2023-02-01T03:02:55.307Z,-1.11
2023-02-01T03:05:23.829Z,-1.17
2023-02-01T03:07:58.305Z,-1.26
2023-02-01T03:10:40.164Z,-1.33
2023-02-01T03:13:34.449Z,-1.36
2023-02-01T03:16:06.371Z,-1.34
2023-02-01T03:18:47.759Z,-1.30
2023-02-01T03:21:22.779Z,-1.24
2023-02-01T03:23:54.556Z,-1.18
2023-02-01T03:26:25.461Z,-1.14
2023-02-01T03:28:58.573Z,-1.11
2023-02-01T03:31:30.043Z,-1.04
2023-02-01T03:33:59.510Z,-0.97
2023-02-01T03:36:35.698Z,-0.93
2023-02-01T03:39:10.924Z,-0.94
2023-02-01T03:42:01.595Z,-0.97
2023-02-01T03:44:39.634Z,-1.03
2023-02-01T03:47:30.357Z,-1.08
2023-02-01T03:50:11.829Z,-1.16
2023-02-01T03:52:46.461Z,-1.21
2023-02-01T03:55:18.788Z,-1.30
2023-02-01T03:57:56.293Z,-1.37
2023-02-01T04:00:26.618Z,-1.42
2023-02-01T04:02:56.630Z,-1.50
2023-02-01T04:05:25.250Z,-1.57
2023-02-01T04:08:06.336Z,-1.63
2023-02-01T04:10:34.620Z,-1.68
2023-02-01T04:13:02.653Z,-1.72
2023-02-01T04:15:30.637Z,-1.75
2023-02-01T04:17:58.717Z,-1.75
2023-02-01T04:20:26.713Z,-1.73
2023-02-01T04:22:55.176Z,-1.71
2023-02-01T04:25:23.499Z,-1.69
2023-02-01T04:27:51.550Z,-1.65
2023-02-01T04:30:19.484Z,-1.62
2023-02-01T04:32:47.905Z,-1.58
2023-02-01T04:35:16.122Z,-1.54
2023-02-01T04:37:44.164Z,-1.48
2023-02-01T04:40:12.824Z,-1.40
2023-02-01T04:42:40.822Z,-1.32
2023-02-01T04:45:10.099Z,-1.25
2023-02-01T04:47:38.054Z,-1.19
2023-02-01T04:50:07.072Z,-1.15
2023-02-01T04:52:35.864Z,-1.14
2023-02-01T04:55:05.217Z,-1.11
2023-02-01T04:57:33.245Z,-1.07
2023-02-01T05:00:01.411Z,-1.03
2023-02-01T05:02:29.305Z,-1.01
2023-02-01T05:04:57.472Z,-0.98
2023-02-01T05:07:25.505Z,-0.95
2023-02-01T05:09:53.521Z,-0.93
2023-02-01T05:12:40.064Z,-0.91
2023-02-01T05:15:08.626Z,-0.88
2023-02-01T05:17:36.612Z,-0.90
2023-02-01T05:20:05.089Z,-0.94
2023-02-01T05:22:33.141Z,-0.94
2023-02-01T05:25:01.193Z,-0.91
2023-02-01T05:27:31.793Z,-0.91
2023-02-01T05:29:59.839Z,-0.89
2023-02-01T05:32:28.017Z,-0.83
2023-02-01T05:34:56.426Z,-0.79
2023-02-01T05:37:24.587Z,-0.82
2023-02-01T05:39:52.528Z,-0.79
2023-02-01T05:42:20.919Z,-0.79
2023-02-01T05:44:49.256Z,-0.85
2023-02-01T05:47:17.438Z,-0.92
2023-02-01T05:49:45.527Z,-0.93
2023-02-01T05:52:13.634Z,-0.92
2023-02-01T05:54:41.873Z,-0.92
2023-02-01T05:57:10.105Z,-0.90
2023-02-01T05:59:42.365Z,-0.90
2023-02-01T06:02:11.422Z,-0.89
2023-02-01T06:04:40.382Z,-0.86
2023-02-01T06:07:10.238Z,-0.86
2023-02-01T06:09:38.324Z,-0.82
2023-02-01T06:12:06.937Z,-0.77
2023-02-01T06:14:35.196Z,-0.73
2023-02-01T06:17:04.090Z,-0.68
2023-02-01T06:19:32.434Z,-0.67
2023-02-01T06:22:00.523Z,-0.67
2023-02-01T06:24:28.667Z,-0.66
2023-02-01T06:26:57.092Z,-0.59
2023-02-01T06:29:25.493Z,-0.55
2023-02-01T06:31:54.823Z,-0.47
2023-02-01T06:34:24.235Z,-0.41
2023-02-01T06:36:52.666Z,-0.42
2023-02-01T06:39:21.461Z,-0.37
2023-02-01T06:41:50.862Z,-0.43
2023-02-01T06:44:19.203Z,-0.61
2023-02-01T06:46:47.448Z,-0.50
2023-02-01T06:49:15.841Z,-0.43
2023-02-01T06:51:44.250Z,-0.55
2023-02-01T06:54:12.680Z,-0.62
2023-02-01T06:56:41.311Z,-0.61
2023-02-01T06:59:09.855Z,-0.72
2023-02-01T07:01:38.059Z,-0.61
2023-02-01T07:04:06.313Z,-0.57
2023-02-01T07:06:34.542Z,-0.56
2023-02-01T07:09:02.683Z,-0.59
2023-02-01T07:11:31.908Z,-0.54
2023-02-01T07:14:00.772Z,-0.55
2023-02-01T07:16:30.518Z,-0.52
2023-02-01T07:18:59.676Z,-0.46
2023-02-01T07:21:28.984Z,-0.40
2023-02-01T07:23:57.290Z,-0.38
2023-02-01T07:26:25.474Z,-0.34
2023-02-01T07:28:53.676Z,-0.32
2023-02-01T07:31:22.152Z,-0.29
2023-02-01T07:33:53.564Z,-0.21
2023-02-01T07:36:22.085Z,-0.14
2023-02-01T07:38:51.959Z,-0.09
2023-02-01T07:41:20.443Z,-0.06
2023-02-01T07:43:48.501Z,-0.01
2023-02-01T07:46:16.688Z,0.00
2023-02-01T07:48:44.914Z,0.02
2023-02-01T07:51:15.546Z,-0.00
2023-02-01T07:53:44.879Z,0.01
2023-02-01T07:56:16.262Z,0.04
2023-02-01T07:58:48.544Z,0.07
2023-02-01T08:01:21.345Z,0.08
2023-02-01T08:03:55.704Z,0.08
2023-02-01T08:06:27.572Z,0.07
2023-02-01T08:08:56.587Z,0.09
2023-02-01T08:11:27.306Z,0.15
2023-02-01T08:14:05.240Z,0.23
2023-02-01T08:16:36.608Z,0.31
2023-02-01T08:19:04.985Z,0.40
2023-02-01T08:21:39.363Z,0.49
2023-02-01T08:24:15.017Z,0.63
2023-02-01T08:26:43.432Z,0.76
2023-02-01T08:29:13.689Z,0.87
2023-02-01T08:31:43.024Z,0.99
2023-02-01T08:34:13.820Z,1.04
2023-02-01T08:36:42.298Z,1.05
2023-02-01T08:39:12.425Z,1.09
2023-02-01T08:41:41.395Z,1.10
2023-02-01T08:44:11.315Z,1.11
2023-02-01T08:46:40.925Z,1.14
2023-02-01T08:49:18.206Z,1.16
2023-02-01T08:51:46.721Z,1.21
2023-02-01T08:54:15.400Z,1.23
2023-02-01T08:56:43.835Z,1.33
2023-02-01T08:59:12.290Z,1.42
2023-02-01T09:01:40.892Z,1.44
2023-02-01T09:04:09.397Z,1.47
2023-02-01T09:06:38.496Z,1.52
2023-02-01T09:09:06.965Z,1.59
2023-02-01T09:11:35.403Z,1.69
2023-02-01T09:14:03.849Z,1.79
2023-02-01T09:16:32.834Z,1.88
2023-02-01T09:19:24.290Z,1.91
2023-02-01T09:21:49.492Z,1.84
2023-02-01T09:24:18.541Z,1.88
2023-02-01T09:26:46.711Z,1.94
2023-02-01T09:29:15.212Z,2.00
2023-02-01T09:31:49.837Z,2.07
2023-02-01T09:34:26.147Z,2.10
2023-02-01T09:36:54.699Z,2.18
2023-02-01T09:39:23.151Z,2.31
2023-02-01T09:41:55.310Z,2.46
2023-02-01T09:44:42.369Z,2.56
2023-02-01T09:47:16.648Z,2.66
2023-02-01T09:50:12.136Z,2.82
2023-02-01T09:52:57.286Z,2.94
2023-02-01T09:55:36.130Z,3.05
2023-02-01T09:58:15.414Z,3.19
2023-02-01T10:00:54.598Z,3.36
2023-02-01T10:03:26.132Z,3.47
2023-02-01T10:06:06.977Z,3.61
2023-02-01T10:08:59.025Z,3.73
2023-02-01T10:11:52.040Z,3.84
2023-02-01T10:14:57.078Z,3.87
2023-02-01T10:17:44.152Z,3.89
2023-02-01T10:21:04.303Z,3.85
2023-02-01T10:24:05.989Z,3.78
2023-02-01T10:26:45.745Z,3.70
2023-02-01T10:29:20.905Z,3.60
2023-02-01T10:31:50.583Z,3.61
2023-02-01T10:34:28.574Z,3.65
2023-02-01T10:37:33.298Z,3.77
2023-02-01T10:40:14.791Z,3.79
2023-02-01T10:42:43.516Z,3.88
2023-02-01T10:45:31.983Z,3.89
2023-02-01T10:48:15.077Z,3.93
2023-02-01T10:51:01.531Z,3.87
2023-02-01T10:53:44.082Z,3.88
2023-02-01T10:56:17.748Z,3.85
2023-02-01T10:58:49.743Z,3.85
2023-02-01T11:01:52.282Z,3.94
2023-02-01T11:04:22.373Z,4.01
2023-02-01T11:07:10.155Z,4.06
2023-02-01T11:09:43.156Z,4.20
2023-02-01T11:12:34.895Z,4.34
2023-02-01T11:15:24.502Z,4.47
2023-02-01T11:17:55.955Z,4.54
2023-02-01T11:20:33.593Z,4.57
2023-02-01T11:23:03.025Z,4.51
2023-02-01T11:25:36.568Z,4.48
2023-02-01T11:28:06.183Z,4.47
2023-02-01T11:30:42.156Z,4.49
2023-02-01T11:33:19.076Z,4.51
2023-02-01T11:35:49.270Z,4.46
2023-02-01T11:38:34.071Z,4.44
2023-02-01T11:41:28.782Z,4.42
2023-02-01T11:44:03.091Z,4.44
2023-02-01T11:46:34.568Z,4.38
2023-02-01T11:49:28.412Z,4.30
2023-02-01T11:52:16.129Z,4.29
2023-02-01T11:55:11.348Z,4.29
2023-02-01T11:57:54.845Z,4.28
2023-02-01T12:00:35.952Z,4.24
2023-02-01T12:03:31.936Z,4.19
2023-02-01T12:06:07.278Z,4.13
2023-02-01T12:09:02.573Z,4.05
2023-02-01T12:12:20.464Z,4.03
2023-02-01T12:15:04.779Z,4.05
2023-02-01T12:17:39.277Z,4.11
2023-02-01T12:20:20.651Z,4.14
2023-02-01T12:23:28.089Z,4.27
2023-02-01T12:26:33.828Z,4.41
2023-02-01T12:29:26.876Z,4.57
2023-02-01T12:32:44.955Z,4.65
2023-02-01T12:35:32.931Z,4.59
2023-02-01T12:38:23.054Z,4.62
2023-02-01T12:41:09.573Z,4.46
2023-02-01T12:43:48.309Z,4.21
2023-02-01T12:46:26.560Z,4.18
2023-02-01T12:49:08.488Z,4.30
2023-02-01T12:51:43.015Z,4.25
2023-02-01T12:54:28.435Z,4.27
2023-02-01T12:57:10.501Z,4.27
2023-02-01T12:59:50.645Z,4.30
2023-02-01T13:02:43.899Z,4.35
2023-02-01T13:05:21.996Z,4.28
2023-02-01T13:08:01.053Z,4.33
2023-02-01T13:10:42.663Z,4.33
2023-02-01T13:13:20.473Z,4.35
2023-02-01T13:15:57.373Z,4.37
2023-02-01T13:18:34.854Z,4.36
2023-02-01T13:21:09.562Z,4.28
2023-02-01T13:23:41.712Z,4.23
2023-02-01T13:26:10.587Z,4.19
2023-02-01T13:28:55.303Z,4.19
2023-02-01T13:31:49.006Z,4.20
2023-02-01T13:34:33.252Z,4.19
2023-02-01T13:37:29.141Z,4.17
2023-02-01T13:40:25.436Z,4.19
2023-02-01T13:42:54.460Z,4.26
2023-02-01T13:45:29.726Z,4.30
2023-02-01T13:48:02.775Z,4.30
2023-02-01T13:50:37.382Z,4.23
2023-02-01T13:53:18.875Z,4.14
2023-02-01T13:56:00.672Z,4.02
2023-02-01T13:58:42.156Z,3.90
2023-02-01T14:01:32.234Z,3.76
2023-02-01T14:04:07.265Z,3.61
2023-02-01T14:06:45.948Z,3.55
2023-02-01T14:09:38.217Z,3.48
2023-02-01T14:12:54.802Z,3.40
2023-02-01T14:15:29.084Z,3.30
2023-02-01T14:17:57.774Z,3.23
2023-02-01T14:20:47.020Z,3.19
2023-02-01T14:23:19.137Z,3.12
2023-02-01T14:25:50.270Z,3.05
2023-02-01T14:28:30.853Z,2.98
2023-02-01T14:31:00.988Z,2.92
2023-02-01T14:33:29.896Z,2.87
2023-02-01T14:36:15.299Z,2.84
2023-02-01T14:38:51.341Z,2.82
2023-02-01T14:41:30.260Z,2.81
2023-02-01T14:44:03.147Z,2.81
2023-02-01T14:47:06.340Z,2.81
2023-02-01T14:49:41.228Z,2.81
2023-02-01T14:52:17.446Z,2.79
2023-02-01T14:54:53.502Z,2.76
2023-02-01T14:57:26.881Z,2.71
2023-02-01T15:00:07.068Z,2.66
2023-02-01T15:02:40.382Z,2.61
2023-02-01T15:05:32.351Z,2.56
2023-02-01T15:08:31.684Z,2.51
2023-02-01T15:11:03.918Z,2.46
2023-02-01T15:13:32.382Z,2.43
2023-02-01T15:16:07.107Z,2.38
2023-02-01T15:18:35.636Z,2.34
2023-02-01T15:21:26.496Z,2.29
2023-02-01T15:24:16.135Z,2.22
2023-02-01T15:26:44.910Z,2.14
2023-02-01T15:29:14.959Z,2.06
2023-02-01T15:31:47.072Z,2.00
2023-02-01T15:34:15.551Z,1.94
2023-02-01T15:37:00.350Z,1.91
2023-02-01T15:39:33.171Z,1.88
2023-02-01T15:42:21.097Z,1.85
2023-02-01T15:44:49.487Z,1.84
2023-02-01T15:47:21.421Z,1.83
2023-02-01T15:49:56.027Z,1.85
2023-02-01T15:52:37.108Z,1.87
2023-02-01T15:55:47.922Z,1.88
2023-02-01T15:58:22.854Z,1.91
2023-02-01T16:00:57.012Z,1.94
2023-02-01T16:03:37.704Z,1.93
2023-02-01T16:06:10.234Z,1.91
2023-02-01T16:08:50.059Z,1.86
2023-02-01T16:11:24.639Z,1.83
2023-02-01T16:13:53.039Z,1.82
2023-02-01T16:16:21.476Z,1.83
2023-02-01T16:18:50.051Z,1.85
2023-02-01T16:21:19.101Z,1.89
2023-02-01T16:23:52.651Z,1.91
2023-02-01T16:26:22.623Z,1.93
2023-02-01T16:28:51.617Z,1.93
2023-02-01T16:31:24.736Z,1.92
2023-02-01T16:33:53.683Z,1.86
2023-02-01T16:36:22.785Z,1.80
2023-02-01T16:38:51.071Z,1.76
2023-02-01T16:41:21.407Z,1.73
2023-02-01T16:43:56.292Z,1.69
2023-02-01T16:46:27.243Z,1.66
2023-02-01T16:48:58.853Z,1.64
2023-02-01T16:51:33.128Z,1.64
2023-02-01T16:54:02.578Z,1.68
2023-02-01T16:56:34.562Z,1.71
2023-02-01T16:59:03.523Z,1.75
2023-02-01T17:01:32.112Z,1.79
2023-02-01T17:04:00.773Z,1.78
2023-02-01T17:06:30.330Z,1.74
2023-02-01T17:08:59.997Z,1.74
2023-02-01T17:11:31.084Z,1.78
2023-02-01T17:14:16.794Z,1.81
2023-02-01T17:16:48.366Z,1.83
2023-02-01T17:19:24.726Z,1.81
2023-02-01T17:21:59.578Z,1.78
2023-02-01T17:24:42.739Z,1.77
2023-02-01T17:27:19.665Z,1.78
2023-02-01T17:29:49.436Z,1.79
2023-02-01T17:32:21.286Z,1.79
2023-02-01T17:34:50.826Z,1.78
2023-02-01T17:37:34.727Z,1.78
2023-02-01T17:40:03.904Z,1.78
2023-02-01T17:42:32.537Z,1.78
2023-02-01T17:45:23.336Z,1.77
2023-02-01T17:47:51.956Z,1.77
2023-02-01T17:50:20.250Z,1.80
2023-02-01T17:52:48.447Z,1.84
2023-02-01T17:55:20.555Z,1.90
2023-02-01T17:57:49.754Z,1.95
2023-02-01T18:00:19.382Z,2.02
2023-02-01T18:02:47.582Z,2.09
2023-02-01T18:05:25.027Z,2.16
2023-02-01T18:07:53.792Z,2.22
2023-02-01T18:10:21.986Z,2.24
2023-02-01T18:12:51.395Z,2.27
2023-02-01T18:15:23.318Z,2.27
2023-02-01T18:17:52.444Z,2.23
2023-02-01T18:20:23.400Z,2.17
2023-02-01T18:22:52.284Z,2.14
2023-02-01T18:25:22.436Z,2.10
2023-02-01T18:27:54.108Z,2.06
2023-02-01T18:30:25.769Z,1.97
2023-02-01T18:32:54.129Z,1.90
2023-02-01T18:35:25.980Z,1.86
2023-02-01T18:37:56.666Z,1.75
2023-02-01T18:40:29.330Z,1.76
2023-02-01T18:42:58.580Z,1.75
2023-02-01T18:45:36.838Z,1.73
2023-02-01T18:48:07.376Z,1.74
2023-02-01T18:50:40.264Z,1.72
2023-02-01T18:53:14.537Z,1.66
2023-02-01T18:55:42.801Z,1.62
2023-02-01T18:58:14.173Z,1.63
2023-02-01T19:00:44.230Z,1.63
2023-02-01T19:03:14.978Z,1.66
2023-02-01T19:05:43.339Z,1.68
2023-02-01T19:08:11.972Z,1.69
2023-02-01T19:10:42.738Z,1.69
2023-02-01T19:13:14.640Z,1.68
2023-02-01T19:15:44.166Z,1.69
2023-02-01T19:18:15.540Z,1.72
2023-02-01T19:20:46.535Z,1.74
2023-02-01T19:23:15.029Z,1.74
2023-02-01T19:25:45.438Z,1.73
2023-02-01T19:28:15.411Z,1.76
2023-02-01T19:30:45.142Z,1.80
2023-02-01T19:33:13.904Z,1.87
2023-02-01T19:35:42.530Z,1.92
2023-02-01T19:38:13.277Z,1.97
2023-02-01T19:40:42.054Z,2.01
2023-02-01T19:43:10.481Z,2.03
2023-02-01T19:45:38.599Z,2.03
2023-02-01T19:48:08.006Z,2.01
2023-02-01T19:50:36.129Z,1.98
2023-02-01T19:53:04.316Z,1.91
2023-02-01T19:55:32.953Z,1.85
2023-02-01T19:58:02.555Z,1.78
2023-02-01T20:00:31.491Z,1.73
2023-02-01T20:02:59.790Z,1.68
2023-02-01T20:05:28.147Z,1.64
2023-02-01T20:07:56.751Z,1.61
2023-02-01T20:10:25.182Z,1.60
2023-02-01T20:12:53.631Z,1.59
2023-02-01T20:15:24.941Z,1.60
2023-02-01T20:17:53.946Z,1.62
2023-02-01T20:20:23.584Z,1.64
2023-02-01T20:22:53.478Z,1.68
2023-02-01T20:25:25.937Z,1.72
2023-02-01T20:27:55.787Z,1.77
2023-02-01T20:30:24.479Z,1.83
2023-02-01T20:32:53.141Z,1.89
2023-02-01T20:35:22.756Z,1.94
2023-02-01T20:37:51.966Z,1.97
2023-02-01T20:40:21.022Z,1.98
2023-02-01T20:42:50.372Z,1.98
2023-02-01T20:45:18.698Z,1.98
2023-02-01T20:47:53.645Z,1.96
2023-02-01T20:50:22.205Z,1.96
2023-02-01T20:52:50.181Z,1.93
2023-02-01T20:55:18.334Z,1.92
2023-02-01T20:57:46.609Z,1.91
2023-02-01T21:00:15.894Z,1.90
2023-02-01T21:02:44.304Z,1.92
2023-02-01T21:05:12.922Z,1.96
2023-02-01T21:07:41.202Z,2.01
2023-02-01T21:10:10.319Z,2.06
2023-02-01T21:12:39.097Z,2.10
2023-02-01T21:15:08.464Z,2.16
2023-02-01T21:17:39.450Z,2.20
2023-02-01T21:20:08.927Z,2.23
2023-02-01T21:22:36.996Z,2.23
2023-02-01T21:25:05.529Z,2.21
2023-02-01T21:27:33.627Z,2.20
2023-02-01T21:30:02.234Z,2.20
2023-02-01T21:32:30.467Z,2.20
2023-02-01T21:34:58.875Z,2.18
2023-02-01T21:37:27.378Z,2.18
2023-02-01T21:39:56.840Z,2.17
2023-02-01T21:42:26.848Z,2.15
2023-02-01T21:44:55.410Z,2.16
2023-02-01T21:47:26.556Z,2.17
2023-02-01T21:49:56.441Z,2.20
2023-02-01T21:52:25.500Z,2.22
2023-02-01T21:54:59.863Z,2.25
2023-02-01T21:57:29.684Z,2.29
2023-02-01T21:59:59.217Z,2.33
2023-02-01T22:02:28.531Z,2.36
2023-02-01T22:04:57.948Z,2.39
2023-02-01T22:07:26.564Z,2.41
2023-02-01T22:09:55.253Z,2.42
2023-02-01T22:12:23.430Z,2.40
2023-02-01T22:14:51.540Z,2.38
2023-02-01T22:17:20.081Z,2.38
2023-02-01T22:19:48.462Z,2.37
2023-02-01T22:22:16.984Z,2.37
2023-02-01T22:24:45.036Z,2.36
2023-02-01T22:27:14.689Z,2.36
2023-02-01T22:29:43.706Z,2.34
2023-02-01T22:32:14.207Z,2.33
2023-02-01T22:34:42.471Z,2.33
2023-02-01T22:37:12.057Z,2.34
2023-02-01T22:39:41.409Z,2.37
2023-02-01T22:42:09.983Z,2.40
2023-02-01T22:44:38.703Z,2.46
2023-02-01T22:47:07.708Z,2.51
2023-02-01T22:49:35.798Z,2.58
2023-02-01T22:52:03.811Z,2.64
2023-02-01T22:54:31.848Z,2.67
2023-02-01T22:57:00.426Z,2.69
2023-02-01T22:59:28.576Z,2.69
2023-02-01T23:01:56.946Z,2.72
2023-02-01T23:04:25.474Z,2.74
2023-02-01T23:06:53.652Z,2.74
2023-02-01T23:09:26.540Z,2.76
2023-02-01T23:11:55.395Z,2.75
2023-02-01T23:14:24.341Z,2.75
2023-02-01T23:16:52.351Z,2.75
2023-02-01T23:19:21.345Z,2.72
2023-02-01T23:21:49.857Z,2.71
2023-02-01T23:24:18.131Z,2.68
2023-02-01T23:26:46.461Z,2.66
2023-02-01T23:29:18.377Z,2.64
2023-02-01T23:31:46.683Z,2.66
2023-02-01T23:34:15.363Z,2.66
2023-02-01T23:36:43.993Z,2.67
2023-02-01T23:39:12.481Z,2.65
2023-02-01T23:41:40.976Z,2.64
2023-02-01T23:44:10.317Z,2.64
2023-02-01T23:46:45.333Z,2.63
2023-02-01T23:49:15.856Z,2.61
2023-02-01T23:51:45.009Z,2.58
2023-02-01T23:54:13.685Z,2.56
2023-02-01T23:56:45.389Z,2.54
2023-02-01T23:59:22.686Z,2.51
